Time;durP1;ratioP1;P1;durP2;ratioP2;P2;SDS_P1;SDS_P2;PMS_P1;PMS_P2;Temp;Humidity;BMP_temperature;BMP_pressure;BME280_temperature;BME280_humidity;BME280_pressure;Samples;Min_cycle;Max_cycle;Signal;HPM_P1;HPM_P2
2021/04/18 00:02:20;;;;;;;;;;;;;;;8.53;70.76;99565.78;5037090;28;19920;-92
2021/04/18 00:04:46;;;;;;;;;;;;;;;8.41;69.02;99560.84;5036454;28;19927;-93
2021/04/18 00:07:11;;;;;;;;;;;;;;;8.10;71.13;99556.09;5036318;28;20364;-93
2021/04/18 00:09:37;;;;;;;;;;;;;;;8.29;68.50;99557.53;5034846;28;20017;-93
2021/04/18 00:12:02;;;;;;;;;;;;;;;8.13;69.44;99558.63;5053551;28;19932;-93
2021/04/18 00:14:27;;;;;;;;;;;;;;;7.66;71.64;99554.91;5046273;28;19917;-92
2021/04/18 00:16:53;;;;;;;;;;;;;;;7.30;75.85;99555.28;5029092;28;20445;-92
2021/04/18 00:19:18;;;;;;;;;;;;;;;7.20;78.24;99553.66;5029625;28;19924;-92
2021/04/18 00:21:43;;;;;;;;;;;;;;;6.96;79.83;99559.03;5043389;28;19920;-92
2021/04/18 00:24:09;;;;;;;;;;;;;;;6.95;80.17;99560.72;5029382;28;19947;-92
2021/04/18 00:26:34;;;;;;;;;;;;;;;7.32;78.62;99545.00;5029200;28;19920;-92
2021/04/18 00:28:59;;;;;;;;;;;;;;;7.47;76.49;99544.84;5028089;28;19998;-92
2021/04/18 00:31:25;;;;;;;;;;;;;;;7.26;78.44;99547.66;5029953;28;20011;-92
2021/04/18 00:33:50;;;;;;;;;;;;;;;7.36;77.95;99546.69;5032084;28;19975;-92
2021/04/18 00:36:15;;;;;;;;;;;;;;;7.59;77.22;99541.31;5050614;28;20377;-92
2021/04/18 00:38:41;;;;;;;;;;;;;;;7.90;75.26;99534.09;5029679;28;19969;-92
2021/04/18 00:41:06;;;;;;;;;;;;;;;8.15;72.89;99528.66;5031278;28;19924;-91
2021/04/18 00:43:31;;;;;;;;;;;;;;;7.61;74.36;99536.16;5050051;28;21393;-92
2021/04/18 00:45:57;;;;;;;;;;;;;;;7.43;75.85;99538.06;5038179;28;20441;-91
2021/04/18 00:48:22;;;;;;;;;;;;;;;7.21;76.89;99540.00;5028596;28;20305;-92
2021/04/18 00:50:48;;;;;;;;;;;;;;;7.13;78.17;99549.47;5031558;28;19924;-92
2021/04/18 00:53:13;;;;;;;;;;;;;;;7.06;79.37;99548.66;5031481;28;19921;-92
2021/04/18 00:55:42;;;;;;;;;;;;;;;7.12;79.19;99548.63;5030881;28;19969;-92
2021/04/18 00:58:08;;;;;;;;;;;;;;;7.04;79.14;99544.44;5017575;28;19924;-92
2021/04/18 01:00:39;;;;;;;;;;;;;;;6.27;84.21;99556.09;5026509;28;19932;-92
2021/04/18 01:03:05;;;;;;;;;;;;;;;6.03;87.57;99561.31;5040328;28;19920;-92
2021/04/18 01:05:31;;;;;;;;;;;;;;;6.06;88.99;99557.03;5017085;28;19916;-92
2021/04/18 01:07:56;;;;;;;;;;;;;;;6.17;89.04;99554.41;5030166;28;19951;-92
2021/04/18 01:10:22;;;;;;;;;;;;;;;6.04;89.78;99552.78;5029123;28;20363;-92
2021/04/18 01:12:47;;;;;;;;;;;;;;;5.82;92.04;99552.00;5041522;28;19923;-92
2021/04/18 01:15:14;;;;;;;;;;;;;;;5.87;93.31;99551.13;5037915;28;19925;-92
2021/04/18 01:17:39;;;;;;;;;;;;;;;5.84;93.31;99546.03;5031207;28;19985;-92
2021/04/18 01:20:06;;;;;;;;;;;;;;;5.77;93.92;99544.34;5019497;28;20384;-93
2021/04/18 01:22:31;;;;;;;;;;;;;;;5.91;92.74;99546.84;5030282;28;19931;-92
2021/04/18 01:24:57;;;;;;;;;;;;;;;6.01;91.95;99543.41;5033216;28;19920;-92
2021/04/18 01:27:23;;;;;;;;;;;;;;;6.02;91.95;99544.25;5032238;28;20027;-92
2021/04/18 01:29:49;;;;;;;;;;;;;;;6.00;92.01;99540.88;5032767;28;20669;-92
2021/04/18 01:32:14;;;;;;;;;;;;;;;5.99;92.31;99539.16;5029589;28;19930;-91
2021/04/18 01:34:41;;;;;;;;;;;;;;;5.84;94.21;99535.81;5016063;28;20785;-92
2021/04/18 01:37:06;;;;;;;;;;;;;;;5.93;94.68;99536.59;5026704;28;19930;-92
2021/04/18 01:39:33;;;;;;;;;;;;;;;5.80;96.20;99538.38;5048307;28;19920;-91
2021/04/18 01:41:58;;;;;;;;;;;;;;;5.86;97.32;99535.78;5052606;28;19932;-93
2021/04/18 01:44:23;;;;;;;;;;;;;;;6.07;95.32;99534.88;5016515;28;19920;-92
2021/04/18 01:46:49;;;;;;;;;;;;;;;6.07;94.35;99529.78;5027711;28;19956;-92
2021/04/18 01:49:14;;;;;;;;;;;;;;;5.98;94.84;99527.25;5031612;28;20709;-91
2021/04/18 01:51:39;;;;;;;;;;;;;;;5.85;96.46;99528.97;5046019;28;19928;-92
2021/04/18 01:54:05;;;;;;;;;;;;;;;5.78;97.21;99525.59;5048918;28;20427;-91
2021/04/18 01:56:31;;;;;;;;;;;;;;;6.12;94.97;99530.59;5027788;28;19916;-92
2021/04/18 01:58:56;;;;;;;;;;;;;;;6.31;93.62;99526.19;5038014;28;20241;-92
2021/04/18 02:01:22;;;;;;;;;;;;;;;7.01;90.96;99529.94;5030778;28;19924;-91
2021/04/18 02:03:47;;;;;;;;;;;;;;;7.27;89.63;99531.41;5017255;28;19921;-92
2021/04/18 02:06:13;;;;;;;;;;;;;;;7.35;88.37;99528.78;5050816;28;19928;-92
2021/04/18 02:08:38;;;;;;;;;;;;;;;7.40;87.12;99520.16;5065874;28;20710;-92
2021/04/18 02:11:03;;;;;;;;;;;;;;;6.53;88.34;99526.06;5041857;28;19935;-92
2021/04/18 02:13:31;;;;;;;;;;;;;;;5.75;92.99;99520.50;5067631;28;19924;-91
2021/04/18 02:15:56;;;;;;;;;;;;;;;5.56;96.21;99521.41;5040061;28;19952;-92
2021/04/18 02:18:21;;;;;;;;;;;;;;;5.53;97.82;99526.56;5037671;28;20513;-92
2021/04/18 02:20:47;;;;;;;;;;;;;;;5.40;99.39;99529.13;5052261;28;20292;-92
2021/04/18 02:23:12;;;;;;;;;;;;;;;5.21;99.21;99523.22;5046131;28;19921;-92
2021/04/18 02:25:37;;;;;;;;;;;;;;;5.59;96.94;99523.97;5029365;28;19924;-91
2021/04/18 02:28:03;;;;;;;;;;;;;;;5.86;92.91;99523.88;5030394;28;19921;-91
2021/04/18 02:30:28;;;;;;;;;;;;;;;5.63;92.70;99520.53;5041430;28;19966;-92
2021/04/18 02:32:54;;;;;;;;;;;;;;;5.40;93.66;99518.06;5053696;28;20317;-91
2021/04/18 02:35:19;;;;;;;;;;;;;;;5.12;94.97;99507.06;5032373;28;20373;-90
2021/04/18 02:37:45;;;;;;;;;;;;;;;5.28;95.24;99513.84;5038594;28;19924;-92
2021/04/18 02:40:11;;;;;;;;;;;;;;;5.37;94.35;99513.81;5031278;28;19978;-91
2021/04/18 02:42:38;;;;;;;;;;;;;;;6.04;91.50;99514.44;5047778;28;19935;-91
2021/04/18 02:45:04;;;;;;;;;;;;;;;6.59;88.95;99508.97;5033290;28;20451;-91
2021/04/18 02:47:29;;;;;;;;;;;;;;;6.78;87.38;99507.09;5049220;28;19969;-91
2021/04/18 02:49:54;;;;;;;;;;;;;;;5.83;90.37;99510.25;5048828;28;19983;-91
2021/04/18 02:52:20;;;;;;;;;;;;;;;5.52;94.59;99517.16;5049912;28;20136;-92
2021/04/18 02:54:45;;;;;;;;;;;;;;;5.66;94.58;99518.84;5034264;28;19963;-92
2021/04/18 02:57:10;;;;;;;;;;;;;;;6.51;90.60;99518.41;5033159;28;20654;-92
2021/04/18 02:59:36;;;;;;;;;;;;;;;6.65;88.69;99515.75;5036655;28;19973;-91
2021/04/18 03:02:01;;;;;;;;;;;;;;;6.79;86.91;99523.31;5032795;28;19991;-91
2021/04/18 03:04:27;;;;;;;;;;;;;;;6.76;86.24;99520.78;5032850;28;19964;-92
2021/04/18 03:06:52;;;;;;;;;;;;;;;6.84;84.94;99524.09;5037572;28;19920;-91
2021/04/18 03:09:17;;;;;;;;;;;;;;;6.87;88.31;99512.16;5033087;28;19931;-91
2021/04/18 03:11:43;;;;;;;;;;;;;;;6.85;88.87;99515.59;5036581;28;19920;-91
2021/04/18 03:14:08;;;;;;;;;;;;;;;6.40;88.75;99525.31;5030684;28;19924;-91
2021/04/18 03:16:33;;;;;;;;;;;;;;;6.08;90.35;99526.34;5030832;28;19924;-91
2021/04/18 03:18:59;;;;;;;;;;;;;;;5.93;91.01;99523.81;5053261;28;19928;-91
2021/04/18 03:21:24;;;;;;;;;;;;;;;5.97;92.23;99515.31;5049561;28;19916;-92
2021/04/18 03:23:49;;;;;;;;;;;;;;;6.32;90.72;99511.69;5036534;28;19920;-92
2021/04/18 03:26:15;;;;;;;;;;;;;;;5.82;91.93;99506.00;5033444;28;20269;-90
2021/04/18 03:28:40;;;;;;;;;;;;;;;5.45;95.85;99517.22;5037061;28;19924;-92
2021/04/18 03:31:06;;;;;;;;;;;;;;;5.30;99.04;99511.28;5050727;28;19975;-91
2021/04/18 03:33:31;;;;;;;;;;;;;;;5.28;99.46;99508.72;5031663;28;19931;-91
2021/04/18 03:35:56;;;;;;;;;;;;;;;5.43;99.86;99511.25;5030182;28;19921;-91
2021/04/18 03:38:22;;;;;;;;;;;;;;;5.30;100.00;99508.75;5030769;28;19916;-91
2021/04/18 03:40:47;;;;;;;;;;;;;;;5.25;100.00;99501.09;5040140;28;19987;-90
2021/04/18 03:43:12;;;;;;;;;;;;;;;5.29;100.00;99501.91;5031080;28;19939;-90
2021/04/18 03:45:38;;;;;;;;;;;;;;;5.36;100.00;99504.47;5050646;28;20603;-92
2021/04/18 03:48:07;;;;;;;;;;;;;;;6.24;95.81;99498.97;5031372;28;19931;-91
2021/04/18 03:50:32;;;;;;;;;;;;;;;6.77;93.48;99505.38;5038504;28;20019;-91
2021/04/18 03:52:57;;;;;;;;;;;;;;;6.49;92.30;99509.88;5028081;28;20011;-91
2021/04/18 03:55:23;;;;;;;;;;;;;;;6.17;92.63;99513.50;5010945;28;20720;-92
2021/04/18 03:57:49;;;;;;;;;;;;;;;6.11;92.44;99508.41;5011775;28;19980;-92
2021/04/18 04:00:14;;;;;;;;;;;;;;;6.43;92.50;99500.56;5010336;28;20385;-90
2021/04/18 04:02:39;;;;;;;;;;;;;;;6.58;91.16;99498.75;5009789;28;19954;-89
2021/04/18 04:05:05;;;;;;;;;;;;;;;6.49;90.71;99494.53;5001569;28;20037;-89
2021/04/18 04:07:30;;;;;;;;;;;;;;;5.89;93.00;99496.59;5026717;28;19921;-90
2021/04/18 04:09:56;;;;;;;;;;;;;;;5.49;95.74;99496.75;5014554;28;20359;-90
2021/04/18 04:12:24;;;;;;;;;;;;;;;5.41;97.50;99497.63;5009607;28;19925;-91
2021/04/18 04:14:49;;;;;;;;;;;;;;;5.40;99.31;99501.03;5003615;28;19932;-90
2021/04/18 04:17:14;;;;;;;;;;;;;;;5.45;98.75;99491.66;5002196;28;19929;-90
2021/04/18 04:19:40;;;;;;;;;;;;;;;5.42;98.61;99495.91;5009263;28;20369;-90
2021/04/18 04:22:05;;;;;;;;;;;;;;;5.84;96.84;99494.91;5002608;28;19924;-91
2021/04/18 04:24:30;;;;;;;;;;;;;;;6.13;93.33;99498.19;5009608;28;19921;-90
2021/04/18 04:26:57;;;;;;;;;;;;;;;5.40;96.74;99497.63;4997812;28;20471;-91
2021/04/18 04:29:22;;;;;;;;;;;;;;;5.52;97.43;99501.84;5004290;28;20732;-91
2021/04/18 04:31:48;;;;;;;;;;;;;;;5.62;97.54;99506.06;5025742;28;19924;-89
2021/04/18 04:34:13;;;;;;;;;;;;;;;6.10;96.59;99514.41;5008272;28;20376;-91
2021/04/18 04:36:38;;;;;;;;;;;;;;;6.34;93.96;99509.97;5000946;28;20010;-91
2021/04/18 04:39:06;;;;;;;;;;;;;;;6.45;93.36;99511.63;5015860;28;19921;-90
2021/04/18 04:41:31;;;;;;;;;;;;;;;5.60;94.44;99506.06;5025473;28;20690;-90
2021/04/18 04:43:56;;;;;;;;;;;;;;;5.70;93.60;99504.31;5000963;28;19932;-90
2021/04/18 04:46:21;;;;;;;;;;;;;;;6.18;92.48;99505.00;5010477;28;19925;-91
2021/04/18 04:48:47;;;;;;;;;;;;;;;5.73;93.39;99500.94;5003108;28;20504;-90
2021/04/18 04:51:12;;;;;;;;;;;;;;;5.67;94.00;99499.22;5019423;28;20025;-91
2021/04/18 04:53:37;;;;;;;;;;;;;;;5.32;96.77;99499.38;5041422;28;19928;-91
2021/04/18 04:56:03;;;;;;;;;;;;;;;4.97;99.66;99497.72;5031384;28;20368;-91
2021/04/18 04:58:28;;;;;;;;;;;;;;;4.84;100.00;99502.00;5024610;28;20015;-90
2021/04/18 05:00:54;;;;;;;;;;;;;;;4.80;100.00;99501.13;5009726;28;19922;-89
2021/04/18 05:03:20;;;;;;;;;;;;;;;4.95;100.00;99504.53;5025060;28;19932;-89
2021/04/18 05:05:45;;;;;;;;;;;;;;;5.38;98.73;99499.34;5019600;28;20163;-90
2021/04/18 05:08:10;;;;;;;;;;;;;;;5.61;97.60;99517.13;5014463;28;19924;-90
2021/04/18 05:10:36;;;;;;;;;;;;;;;6.24;94.59;99520.28;5040319;28;19956;-90
2021/04/18 05:13:01;;;;;;;;;;;;;;;6.27;92.91;99519.41;5012904;28;19928;-91
2021/04/18 05:15:27;;;;;;;;;;;;;;;5.31;98.86;99521.47;5041727;28;19917;-90
2021/04/18 05:17:52;;;;;;;;;;;;;;;4.92;100.00;99525.81;5043211;28;20376;-92
2021/04/18 05:20:18;;;;;;;;;;;;;;;4.58;100.00;99525.81;5033489;28;20035;-91
2021/04/18 05:22:43;;;;;;;;;;;;;;;4.52;100.00;99525.81;5012395;28;20719;-91
2021/04/18 05:25:09;;;;;;;;;;;;;;;4.53;100.00;99521.56;5022186;28;20385;-91
2021/04/18 05:27:35;;;;;;;;;;;;;;;4.71;100.00;99528.38;5020706;28;19921;-90
2021/04/18 05:30:00;;;;;;;;;;;;;;;4.86;100.00;99530.06;5025541;28;19931;-91
2021/04/18 05:32:25;;;;;;;;;;;;;;;4.94;100.00;99518.16;5058746;28;19976;-91
2021/04/18 05:34:51;;;;;;;;;;;;;;;4.95;100.00;99523.25;5035356;28;19924;-91
2021/04/18 05:37:16;;;;;;;;;;;;;;;5.03;100.00;99526.63;5027575;28;19924;-91
2021/04/18 05:39:42;;;;;;;;;;;;;;;5.10;100.00;99529.19;5028679;28;20770;-92
2021/04/18 05:42:11;;;;;;;;;;;;;;;5.15;100.00;99527.47;5020205;28;20016;-91
2021/04/18 05:44:37;;;;;;;;;;;;;;;5.18;100.00;99530.88;5046471;28;20452;-91
2021/04/18 05:47:03;;;;;;;;;;;;;;;5.11;100.00;99530.88;5016130;28;19960;-91
2021/04/18 05:49:29;;;;;;;;;;;;;;;5.10;100.00;99526.63;5025707;28;19975;-91
2021/04/18 05:51:54;;;;;;;;;;;;;;;5.02;100.00;99535.16;5028597;28;19932;-90
2021/04/18 05:54:19;;;;;;;;;;;;;;;4.98;100.00;99535.16;5016663;28;19925;-91
2021/04/18 05:56:45;;;;;;;;;;;;;;;5.13;100.00;99534.28;5025323;28;20008;-90
2021/04/18 05:59:10;;;;;;;;;;;;;;;4.90;100.00;99532.59;5013932;28;20448;-91
2021/04/18 06:01:36;;;;;;;;;;;;;;;4.82;100.00;99527.50;5061285;28;19915;-91
2021/04/18 06:04:01;;;;;;;;;;;;;;;4.79;100.00;99539.44;5034785;28;20166;-90
2021/04/18 06:06:26;;;;;;;;;;;;;;;4.60;100.00;99533.47;5022056;28;19927;-92
2021/04/18 06:08:53;;;;;;;;;;;;;;;4.76;100.00;99534.31;5041476;28;19906;-92
2021/04/18 06:11:22;;;;;;;;;;;;;;;4.68;100.00;99534.31;5024154;28;19935;-93
2021/04/18 06:14:01;;;;;;;;;;;;;;;4.85;100.00;99539.41;5068479;28;19959;-92
2021/04/18 06:16:51;;;;;;;;;;;;;;;4.95;100.00;99553.88;5068796;28;19924;-92
2021/04/18 06:19:17;;;;;;;;;;;;;;;5.01;100.00;99550.47;5058248;28;19932;-91
2021/04/18 06:21:43;;;;;;;;;;;;;;;4.88;100.00;99564.97;5037784;28;19956;-92
2021/04/18 06:24:08;;;;;;;;;;;;;;;4.96;100.00;99568.34;5036339;28;20412;-93
2021/04/18 06:26:36;;;;;;;;;;;;;;;5.05;100.00;99567.50;5033702;28;20003;-93
2021/04/18 06:29:02;;;;;;;;;;;;;;;4.85;100.00;99567.47;5025478;28;19925;-94
2021/04/18 06:31:27;;;;;;;;;;;;;;;4.84;100.00;99568.34;5026299;28;20011;-95
2021/04/18 06:33:52;;;;;;;;;;;;;;;4.64;100.00;99563.22;5031580;28;19917;-94
2021/04/18 06:36:18;;;;;;;;;;;;;;;4.69;100.00;99553.03;5017913;28;19925;-94
2021/04/18 06:38:43;;;;;;;;;;;;;;;4.57;100.00;99548.78;5035455;28;19924;-93
2021/04/18 06:41:09;;;;;;;;;;;;;;;4.74;100.00;99548.78;5029485;28;19919;-94
2021/04/18 06:43:49;;;;;;;;;;;;;;;4.69;100.00;99547.94;5047778;28;19920;-94
2021/04/18 06:46:27;;;;;;;;;;;;;;;4.84;100.00;99542.84;5031265;28;19942;-93
2021/04/18 06:48:54;;;;;;;;;;;;;;;5.10;100.00;99539.41;5056121;28;19921;-93
2021/04/18 06:51:20;;;;;;;;;;;;;;;5.80;100.00;99538.38;5031192;28;19952;-93
2021/04/18 06:53:49;;;;;;;;;;;;;;;6.16;100.00;99532.28;5027189;28;20340;-93
2021/04/18 06:56:18;;;;;;;;;;;;;;;5.93;100.00;99534.03;5036768;28;19927;-92
2021/04/18 06:58:44;;;;;;;;;;;;;;;5.66;100.00;99536.72;5068431;28;19919;-91
2021/04/18 07:01:11;;;;;;;;;;;;;;;5.85;100.00;99537.50;5054177;28;19921;-91
2021/04/18 07:03:38;;;;;;;;;;;;;;;6.34;100.00;99533.00;5206956;23;20364;-91
2021/04/18 07:06:04;;;;;;;;;;;;;;;6.34;100.00;99530.44;5076116;28;19947;-92
2021/04/18 07:08:31;;;;;;;;;;;;;;;6.03;100.00;99535.75;5069258;28;19921;-91
2021/04/18 07:11:09;;;;;;;;;;;;;;;6.54;100.00;99538.84;5350184;22;19908;-91
2021/04/18 07:16:31;;;;;;;;;;;;;;;6.39;100.00;99534.69;5355522;22;19925;-91
2021/04/18 07:26:44;;;;;;;;;;;;;;;5.78;100.00;99529.88;5361132;22;19924;-93
2021/04/18 08:11:19;;;;;;;;;;;;;;;6.62;100.00;99506.38;5610923;22;19929;-91
2021/04/18 08:13:48;;;;;;;;;;;;;;;6.71;100.00;99500.34;5046991;28;20257;-92
2021/04/18 08:16:13;;;;;;;;;;;;;;;6.68;100.00;99508.91;5033463;28;19967;-92
2021/04/18 08:18:43;;;;;;;;;;;;;;;7.17;100.00;99506.75;5038131;28;19917;-92
2021/04/18 08:21:28;;;;;;;;;;;;;;;6.60;100.00;99510.66;5038636;28;19920;-93
2021/04/18 08:23:54;;;;;;;;;;;;;;;6.64;100.00;99507.22;5048832;28;19935;-93
2021/04/18 08:26:20;;;;;;;;;;;;;;;6.56;100.00;99516.66;5019949;28;19921;-90
2021/04/18 08:28:52;;;;;;;;;;;;;;;6.81;100.00;99513.91;5013948;28;19921;-89
2021/04/18 08:31:20;;;;;;;;;;;;;;;6.90;100.00;99511.25;5024431;28;19951;-93
2021/04/18 08:33:46;;;;;;;;;;;;;;;6.99;100.00;99508.63;5035234;28;20327;-87
2021/04/18 08:36:15;;;;;;;;;;;;;;;7.08;100.00;99515.38;5014996;28;19924;-86
2021/04/18 08:38:41;;;;;;;;;;;;;;;7.04;100.00;99519.66;5016177;28;19921;-87
2021/04/18 08:44:37;;;;;;;;;;;;;;;7.23;100.00;99524.59;4969514;28;20020;-86
2021/04/18 09:20:10;;;;;;;;;;;;;;;8.89;100.00;99518.13;4930582;28;19926;-87
2021/04/18 09:22:38;;;;;;;;;;;;;;;8.29;100.00;99526.75;5024377;28;19921;-89
2021/04/18 09:25:13;;;;;;;;;;;;;;;7.99;100.00;99533.16;4996181;28;20432;-87
2021/04/18 09:27:43;;;;;;;;;;;;;;;8.18;100.00;99534.56;4994275;28;20037;-88
2021/04/18 09:30:09;;;;;;;;;;;;;;;8.11;99.18;99524.44;5006625;28;20231;-87
2021/04/18 09:32:39;;;;;;;;;;;;;;;8.04;100.00;99520.25;5018509;28;19924;-93
2021/04/18 09:35:24;;;;;;;;;;;;;;;7.83;100.00;99524.78;5036640;28;19907;-93
2021/04/18 09:38:19;;;;;;;;;;;;;;;8.34;100.00;99519.81;5050887;28;19904;-93
2021/04/18 09:41:00;;;;;;;;;;;;;;;8.39;100.00;99524.88;5052135;28;20007;-94
2021/04/18 09:43:27;;;;;;;;;;;;;;;8.25;100.00;99527.66;5021036;28;19955;-94
2021/04/18 09:46:01;;;;;;;;;;;;;;;8.60;100.00;99521.19;5045988;28;19921;-92
2021/04/18 09:48:37;;;;;;;;;;;;;;;8.67;100.00;99522.78;5035200;28;20100;-94
2021/04/18 09:53:34;;;;;;;;;;;;;;;8.47;100.00;99525.66;5463543;22;19912;-93
2021/04/18 09:56:03;;;;;;;;;;;;;;;8.65;99.85;99529.66;5074399;28;19924;-92
2021/04/18 10:01:25;;;;;;;;;;;;;;;8.74;99.91;99524.38;5158034;22;19939;-93
2021/04/18 10:03:52;;;;;;;;;;;;;;;8.99;98.75;99526.56;5095315;28;20393;-91
2021/04/18 10:06:17;;;;;;;;;;;;;;;9.13;93.81;99516.88;5075974;28;19999;-92
2021/04/18 10:08:52;;;;;;;;;;;;;;;9.00;93.96;99525.66;5071632;28;19924;-93
2021/04/18 10:11:17;;;;;;;;;;;;;;;9.25;94.09;99514.97;5078299;28;20011;-93
2021/04/18 10:13:43;;;;;;;;;;;;;;;9.72;94.34;99518.34;5064801;28;19931;-92
2021/04/18 10:16:09;;;;;;;;;;;;;;;9.48;94.75;99517.09;5066131;28;19943;-92
2021/04/18 10:18:35;;;;;;;;;;;;;;;9.11;99.04;99515.22;5070728;28;19942;-92
2021/04/18 10:21:15;;;;;;;;;;;;;;;9.48;94.94;99512.78;5062094;28;19958;-92
2021/04/18 10:23:42;;;;;;;;;;;;;;;8.77;94.97;99520.91;5051499;28;20426;-93
2021/04/18 10:26:08;;;;;;;;;;;;;;;9.27;92.48;99513.22;5055222;28;19931;-93
2021/04/18 10:28:39;;;;;;;;;;;;;;;8.69;97.07;99525.31;5063256;28;19928;-93
2021/04/18 10:31:04;;;;;;;;;;;;;;;8.54;100.00;99522.13;5062924;28;19926;-93
2021/04/18 10:33:33;;;;;;;;;;;;;;;9.14;97.30;99512.56;5058309;28;19951;-93
2021/04/18 10:36:00;;;;;;;;;;;;;;;8.83;98.59;99513.13;5075847;28;19969;-93
2021/04/18 10:38:25;;;;;;;;;;;;;;;8.72;97.85;99513.28;5064942;28;19928;-93
2021/04/18 10:40:51;;;;;;;;;;;;;;;9.17;97.00;99508.25;5065833;28;19925;-93
2021/04/18 10:43:19;;;;;;;;;;;;;;;8.86;99.53;99507.91;5067225;28;20441;-92
2021/04/18 10:45:44;;;;;;;;;;;;;;;9.17;96.79;99513.38;5075806;28;19912;-92
2021/04/18 10:48:11;;;;;;;;;;;;;;;9.12;96.45;99507.47;5056222;28;19982;-93
2021/04/18 10:50:39;;;;;;;;;;;;;;;9.90;95.35;99505.09;5077344;28;19920;-92
2021/04/18 10:53:06;;;;;;;;;;;;;;;9.88;94.04;99504.28;5078960;28;20368;-92
2021/04/18 10:55:31;;;;;;;;;;;;;;;9.56;95.83;99505.78;5054095;28;19998;-92
2021/04/18 10:57:57;;;;;;;;;;;;;;;9.07;94.51;99509.25;5046630;28;20007;-92
2021/04/18 11:00:22;;;;;;;;;;;;;;;10.11;94.73;99518.41;5051748;28;19935;-90
2021/04/18 12:42:13;;;;;;;;;;;;;;;12.97;77.91;99447.59;1663175;22;20623;-89
2021/04/18 12:44:52;;;;;;;;;;;;;;;13.04;71.94;99444.81;4993589;28;20806;-92
2021/04/18 12:47:23;;;;;;;;;;;;;;;13.54;76.74;99447.34;4987162;28;19922;-91
2021/04/18 12:50:16;;;;;;;;;;;;;;;15.37;71.84;99430.44;4981099;28;19956;-93
2021/04/18 12:55:27;;;;;;;;;;;;;;;12.97;78.86;99436.41;5015880;28;19929;-93
2021/04/18 12:58:13;;;;;;;;;;;;;;;12.50;79.01;99455.22;4993266;28;20792;-93
2021/04/18 13:00:40;;;;;;;;;;;;;;;12.40;78.17;99443.50;5012187;28;19926;-92
2021/04/18 13:03:05;;;;;;;;;;;;;;;12.84;74.41;99448.94;5009621;28;19988;-92
2021/04/18 13:05:31;;;;;;;;;;;;;;;12.71;76.35;99445.09;4993143;28;19992;-92
2021/04/18 13:07:58;;;;;;;;;;;;;;;12.38;77.74;99450.44;5003621;28;19930;-92
2021/04/18 13:10:32;;;;;;;;;;;;;;;12.74;80.10;99448.38;5007711;28;19925;-93
2021/04/18 13:12:57;;;;;;;;;;;;;;;13.72;70.99;99444.06;5018713;28;19948;-93
2021/04/18 13:15:31;;;;;;;;;;;;;;;14.50;64.65;99439.31;4995694;28;19925;-93
2021/04/18 13:17:57;;;;;;;;;;;;;;;15.07;65.09;99442.97;5009661;28;19921;-93
2021/04/18 13:20:24;;;;;;;;;;;;;;;13.99;71.55;99449.09;5007479;28;19928;-91
2021/04/18 13:22:53;;;;;;;;;;;;;;;13.29;71.99;99448.25;4992672;28;19925;-94
2021/04/18 13:25:18;;;;;;;;;;;;;;;13.99;73.88;99449.09;5006283;28;19917;-95
2021/04/18 13:27:44;;;;;;;;;;;;;;;14.28;71.55;99447.97;5002732;28;19971;-95
2021/04/18 13:30:10;;;;;;;;;;;;;;;12.98;75.23;99449.31;5002684;28;19952;-94
2021/04/18 13:32:37;;;;;;;;;;;;;;;13.77;72.04;99447.31;5004926;28;19928;-95
2021/04/18 13:35:07;;;;;;;;;;;;;;;15.07;70.02;99442.97;5005766;28;19921;-92
2021/04/18 13:37:32;;;;;;;;;;;;;;;14.61;68.75;99440.59;5002147;28;19921;-94
2021/04/18 13:40:00;;;;;;;;;;;;;;;15.29;65.96;99437.69;5004186;28;19965;-94
2021/04/18 13:42:27;;;;;;;;;;;;;;;15.32;63.18;99426.34;5015219;28;20349;-94
2021/04/18 13:44:53;;;;;;;;;;;;;;;14.01;65.68;99439.53;4998780;28;19961;-95
2021/04/18 13:47:18;;;;;;;;;;;;;;;13.80;72.22;99438.63;4995867;28;19925;-94
2021/04/18 13:49:43;;;;;;;;;;;;;;;13.81;67.75;99443.72;4996318;28;19955;-95
2021/04/18 13:52:46;;;;;;;;;;;;;;;14.62;67.75;99425.91;4997230;28;20273;-94
2021/04/18 13:58:17;;;;;;;;;;;;;;;14.82;70.07;99428.50;4978857;28;20421;-94
2021/04/18 14:01:08;;;;;;;;;;;;;;;14.11;71.53;99427.06;5006531;28;20349;-93
2021/04/18 14:03:34;;;;;;;;;;;;;;;15.03;66.38;99418.09;4995931;28;19925;-93
2021/04/18 14:06:01;;;;;;;;;;;;;;;16.08;62.60;99420.25;5005706;28;20484;-94
2021/04/18 14:08:31;;;;;;;;;;;;;;;15.05;64.18;99418.84;5004047;28;19985;-92
2021/04/18 14:11:01;;;;;;;;;;;;;;;14.53;66.42;99426.22;5026501;28;19947;-93
2021/04/18 14:13:28;;;;;;;;;;;;;;;15.35;64.27;99415.81;4989217;28;19952;-93
2021/04/18 14:15:56;;;;;;;;;;;;;;;14.94;67.90;99405.50;5009077;28;19925;-94
2021/04/18 14:18:25;;;;;;;;;;;;;;;14.69;63.02;99401.41;5004350;28;20274;-92
2021/04/18 14:20:56;;;;;;;;;;;;;;;16.52;63.69;99400.78;4979867;28;19956;-94
2021/04/18 14:23:22;;;;;;;;;;;;;;;17.01;58.30;99400.06;5008194;28;19960;-93
2021/04/18 14:25:51;;;;;;;;;;;;;;;14.29;72.57;99407.34;5008397;28;19932;-95
2021/04/18 14:28:19;;;;;;;;;;;;;;;14.00;69.68;99406.75;5014573;28;19921;-94
2021/04/18 14:30:58;;;;;;;;;;;;;;;13.80;69.95;99399.81;5014901;28;19925;-93
2021/04/18 14:33:25;;;;;;;;;;;;;;;15.97;66.01;99387.91;5018358;28;20006;-94
2021/04/18 14:35:58;;;;;;;;;;;;;;;14.70;74.29;99391.88;5013997;28;19922;-95
2021/04/18 14:38:31;;;;;;;;;;;;;;;13.90;74.38;99389.91;5018851;28;19939;-94
2021/04/18 14:41:31;;;;;;;;;;;;;;;14.81;75.58;99384.47;5019612;28;20017;-93
2021/04/18 14:44:19;;;;;;;;;;;;;;;14.69;68.29;99379.78;5018190;28;19957;-94
2021/04/18 14:46:53;;;;;;;;;;;;;;;15.43;63.85;99372.19;5032071;28;19932;-92
2021/04/18 14:49:31;;;;;;;;;;;;;;;14.88;69.13;99372.09;5018663;28;19922;-94
2021/04/18 14:52:08;;;;;;;;;;;;;;;14.87;72.88;99368.66;5016669;28;19976;-94
2021/04/18 14:54:43;;;;;;;;;;;;;;;14.47;68.49;99375.50;5045624;28;19925;-94
2021/04/18 14:57:11;;;;;;;;;;;;;;;14.57;70.03;99368.19;5031647;28;19925;-93
2021/04/18 14:59:40;;;;;;;;;;;;;;;14.22;70.91;99378.25;5002801;28;19926;-94
2021/04/18 15:02:05;;;;;;;;;;;;;;;14.44;70.48;99365.28;5011202;28;19921;-95
2021/04/18 15:05:08;;;;;;;;;;;;;;;;;;;;;
2021/04/18 15:07:41;;;;;;;;;;;;;;;14.00;69.48;99360.16;5039396;28;19980;-92
2021/04/18 15:36:35;;;;;;;;;;;;;;;16.87;61.69;99349.59;5041766;22;19937;-92
2021/04/18 15:39:08;;;;;;;;;;;;;;;16.91;59.37;99348.50;5002223;28;19965;-93
2021/04/18 15:42:15;;;;;;;;;;;;;;;15.44;64.85;99350.50;5007543;28;20025;-95
2021/04/18 15:44:42;;;;;;;;;;;;;;;15.21;67.83;99356.75;5029985;28;19940;-93
2021/04/18 15:47:09;;;;;;;;;;;;;;;15.64;62.23;99357.38;5006850;28;19917;-94
2021/04/18 15:49:34;;;;;;;;;;;;;;;15.17;62.25;99355.22;5033729;28;19933;-93
2021/04/18 15:52:00;;;;;;;;;;;;;;;15.04;63.69;99349.75;5030881;28;19917;-94
2021/04/18 15:54:26;;;;;;;;;;;;;;;14.04;73.12;99353.94;5004855;28;19988;-93
2021/04/18 15:56:55;;;;;;;;;;;;;;;13.53;74.08;99360.28;5018002;28;19980;-95
2021/04/18 15:59:22;;;;;;;;;;;;;;;13.70;76.11;99363.06;5011441;28;19929;-93
2021/04/18 16:01:49;;;;;;;;;;;;;;;13.68;75.24;99344.16;5022315;28;19929;-93
2021/04/18 16:04:15;;;;;;;;;;;;;;;13.87;73.69;99343.44;5022123;28;19949;-90
2021/04/18 16:06:41;;;;;;;;;;;;;;;14.03;71.85;99349.69;5006953;28;19910;-93
2021/04/18 16:09:08;;;;;;;;;;;;;;;14.59;68.32;99349.09;5022929;28;19940;-93
2021/04/18 16:11:34;;;;;;;;;;;;;;;14.22;70.53;99350.59;5018521;28;19948;-93
2021/04/18 16:14:02;;;;;;;;;;;;;;;13.63;76.86;99356.44;5013124;28;20023;-93
2021/04/18 16:16:49;;;;;;;;;;;;;;;13.47;83.11;99352.75;5020758;28;19913;-92
2021/04/18 16:19:19;;;;;;;;;;;;;;;13.30;80.11;99354.25;5020926;28;19933;-92
2021/04/18 16:21:48;;;;;;;;;;;;;;;13.47;80.37;99355.34;5026804;28;19921;-92
2021/04/18 16:24:14;;;;;;;;;;;;;;;13.36;81.79;99356.59;5032549;28;19907;-92
2021/04/18 16:26:42;;;;;;;;;;;;;;;13.24;81.67;99344.09;5025955;28;19961;-92
2021/04/18 16:29:33;;;;;;;;;;;;;;;;;;;;;
2021/04/18 16:37:58;;;;;;;;;;;;;;;13.01;81.98;99346.69;5031448;28;19913;-92
2021/04/18 16:40:25;;;;;;;;;;;;;;;13.06;85.67;99345.59;5023423;28;19951;-91
2021/04/18 16:42:51;;;;;;;;;;;;;;;12.99;89.18;99349.31;5007128;28;19922;-92
2021/04/18 16:45:17;;;;;;;;;;;;;;;12.81;86.63;99347.41;5019229;28;19961;-92
2021/04/18 16:47:43;;;;;;;;;;;;;;;12.84;86.25;99344.69;4990919;28;19945;-93
2021/04/18 16:50:19;;;;;;;;;;;;;;;12.92;87.49;99348.69;4991391;28;19922;-92